Time;durP1;ratioP1;P1;durP2;ratioP2;P2;SDS_P1;SDS_P2;PMS_P1;PMS_P2;Temp;Humidity;BMP_temperature;BMP_pressure;BME280_temperature;BME280_humidity;BME280_pressure;Samples;Min_cycle;Max_cycle;Signal;HPM_P1;HPM_P2
2021/12/12 00:01:49;;;;;;;27.30;9.75;;;2.90;99.90;;;;;;5007212;28;20030;-70
2021/12/12 00:04:18;;;;;;;45.92;12.85;;;2.90;99.90;;;;;;5007274;28;20053;-69
2021/12/12 00:06:49;;;;;;;37.10;12.75;;;2.90;99.90;;;;;;5007070;28;20033;-69
2021/12/12 00:09:20;;;;;;;39.50;10.85;;;3.00;99.90;;;;;;5006731;28;20030;-68
2021/12/12 00:11:46;;;;;;;35.42;12.50;;;3.00;99.90;;;;;;5005496;28;20391;-70
2021/12/12 00:14:35;;;;;;;24.58;8.95;;;3.10;99.90;;;;;;5006948;28;20038;-69
2021/12/12 00:17:02;;;;;;;37.53;9.52;;;3.00;99.90;;;;;;4987333;28;20042;-72
2021/12/12 00:19:32;;;;;;;40.95;9.75;;;3.00;99.90;;;;;;4987047;28;20105;-71
2021/12/12 00:22:01;;;;;;;36.78;10.02;;;3.00;99.90;;;;;;4987659;28;20062;-69
2021/12/12 00:24:27;;;;;;;34.97;10.30;;;3.00;99.90;;;;;;4991257;28;20026;-69
2021/12/12 00:26:55;;;;;;;51.08;12.35;;;3.00;99.90;;;;;;5005289;28;20018;-70
2021/12/12 00:29:22;;;;;;;44.60;12.02;;;3.00;99.90;;;;;;5006259;28;20030;-69
2021/12/12 00:31:51;;;;;;;28.95;9.48;;;3.00;99.90;;;;;;5006773;28;20053;-69
2021/12/12 00:34:17;;;;;;;45.60;12.63;;;3.00;99.90;;;;;;5005802;28;20033;-70
2021/12/12 00:36:43;;;;;;;39.72;12.38;;;3.00;99.90;;;;;;5006492;28;20037;-69
2021/12/12 00:39:36;;;;;;;46.08;12.15;;;3.00;99.90;;;;;;5006448;28;20039;-70
2021/12/12 00:42:20;;;;;;;37.38;10.80;;;3.10;99.90;;;;;;5004564;28;20046;-71
2021/12/12 00:44:49;;;;;;;46.50;11.48;;;3.00;99.90;;;;;;5006455;28;20030;-69
2021/12/12 00:47:16;;;;;;;52.88;11.55;;;3.00;99.90;;;;;;5006240;28;20162;-70
2021/12/12 00:49:43;;;;;;;49.28;12.88;;;3.10;99.90;;;;;;5006141;28;20030;-69
2021/12/12 00:52:12;;;;;;;33.55;10.63;;;3.10;99.90;;;;;;5006192;28;20041;-68
2021/12/12 00:54:39;;;;;;;28.48;10.13;;;3.10;99.90;;;;;;5006086;28;20039;-70
2021/12/12 00:57:07;;;;;;;33.70;9.85;;;3.10;99.90;;;;;;5006018;28;20543;-70
2021/12/12 00:59:34;;;;;;;41.22;10.27;;;3.10;99.90;;;;;;5005842;28;20419;-70
2021/12/12 01:02:01;;;;;;;38.55;9.77;;;3.10;99.90;;;;;;5005955;28;20018;-70
2021/12/12 01:04:41;;;;;;;32.08;10.65;;;3.10;99.90;;;;;;5006100;28;20033;-71
2021/12/12 01:07:13;;;;;;;36.92;11.60;;;3.10;99.90;;;;;;5005944;28;20031;-69
2021/12/12 01:09:43;;;;;;;44.05;13.57;;;3.10;99.90;;;;;;5005987;28;20093;-68
2021/12/12 01:12:16;;;;;;;42.92;11.85;;;3.10;99.90;;;;;;5005868;28;20072;-69
2021/12/12 01:14:45;;;;;;;28.27;11.02;;;3.10;99.90;;;;;;5005988;28;20037;-68
2021/12/12 01:17:17;;;;;;;34.95;10.63;;;3.10;99.90;;;;;;5005656;28;20053;-69
2021/12/12 01:19:51;;;;;;;31.40;9.65;;;3.10;99.90;;;;;;5005534;28;20056;-70
2021/12/12 01:22:25;;;;;;;57.10;10.45;;;3.20;99.90;;;;;;5005871;28;20014;-69
2021/12/12 01:24:53;;;;;;;29.60;11.32;;;3.20;99.90;;;;;;5006018;28;20033;-69
2021/12/12 01:27:20;;;;;;;42.47;10.88;;;3.20;99.90;;;;;;5005769;28;20038;-69
2021/12/12 01:29:49;;;;;;;32.83;10.95;;;3.20;99.90;;;;;;5005644;28;20027;-68
2021/12/12 01:32:24;;;;;;;29.25;9.85;;;3.20;99.90;;;;;;5004679;28;20562;-68
2021/12/12 01:34:51;;;;;;;33.70;10.10;;;3.20;99.90;;;;;;5005616;28;20387;-69
2021/12/12 01:40:03;;;;;;;23.83;10.10;;;3.20;99.90;;;;;;5005670;28;20094;-68
2021/12/12 01:42:34;;;;;;;39.90;11.18;;;3.20;99.90;;;;;;5005662;28;20019;-69
2021/12/12 01:45:06;;;;;;;30.15;10.75;;;3.20;99.90;;;;;;5005589;28;20026;-69
2021/12/12 01:47:57;;;;;;;35.88;10.85;;;3.20;99.90;;;;;;5004149;28;20022;-69
2021/12/12 01:50:41;;;;;;;30.23;10.10;;;3.20;99.90;;;;;;5005554;28;20065;-68
2021/12/12 01:53:09;;;;;;;35.88;10.77;;;3.20;99.90;;;;;;5005309;28;20030;-69
2021/12/12 01:55:47;;;;;;;26.30;9.77;;;3.20;99.90;;;;;;5005411;28;20102;-69
2021/12/12 01:58:16;;;;;;;31.35;11.45;;;3.30;99.90;;;;;;5005362;28;20038;-70
2021/12/12 02:00:48;;;;;;;33.60;11.80;;;3.30;99.90;;;;;;5005266;28;20042;-69
2021/12/12 02:03:18;;;;;;;36.53;11.07;;;3.30;99.90;;;;;;5005309;28;20031;-69
2021/12/12 02:05:44;;;;;;;39.10;10.43;;;3.30;99.90;;;;;;5005329;28;20027;-69
2021/12/12 02:08:13;;;;;;;41.20;10.18;;;3.30;99.90;;;;;;5005342;28;20039;-70
2021/12/12 02:10:46;;;;;;;57.45;13.23;;;3.30;99.90;;;;;;5005229;28;20044;-70
2021/12/12 02:13:15;;;;;;;46.83;12.10;;;3.30;99.90;;;;;;5005262;28;20117;-69
2021/12/12 02:15:44;;;;;;;28.77;9.40;;;3.40;99.90;;;;;;5005159;28;20038;-69
2021/12/12 02:18:14;;;;;;;43.55;12.75;;;3.40;99.90;;;;;;5004749;28;20050;-70
2021/12/12 02:21:12;;;;;;;27.55;9.65;;;3.40;99.90;;;;;;5005184;28;20022;-70
2021/12/12 02:24:18;;;;;;;29.25;8.85;;;3.40;99.90;;;;;;5005205;28;20026;-69
2021/12/12 02:37:37;;;;;;;45.00;10.77;;;3.60;99.90;;;;;;5005021;28;19944;-69
2021/12/12 02:40:11;;;;;;;24.77;11.48;;;3.60;99.90;;;;;;5005146;28;20030;-70
2021/12/12 02:42:38;;;;;;;57.05;12.95;;;3.70;99.90;;;;;;5003964;28;20077;-70
2021/12/12 02:45:07;;;;;;;29.15;10.63;;;3.70;99.90;;;;;;5004960;28;20030;-69
2021/12/12 02:47:34;;;;;;;37.42;10.07;;;3.70;99.90;;;;;;5005022;28;20026;-69
2021/12/12 02:50:24;;;;;;;42.53;13.63;;;3.70;99.90;;;;;;5003469;28;20395;-69
2021/12/12 02:52:54;;;;;;;50.50;12.68;;;3.70;99.90;;;;;;5005149;28;20049;-68
2021/12/12 02:55:26;;;;;;;40.80;13.45;;;3.70;99.90;;;;;;5004894;28;20023;-69
2021/12/12 02:57:54;;;;;;;39.10;12.65;;;3.70;99.90;;;;;;5007567;28;20394;-69
2021/12/12 03:00:24;;;;;;;35.10;12.80;;;3.80;99.90;;;;;;5008651;28;20034;-69
2021/12/12 03:02:57;;;;;;;51.72;12.23;;;3.80;99.90;;;;;;5007210;28;20077;-69
2021/12/12 03:05:25;;;;;;;58.05;13.73;;;3.80;99.90;;;;;;5008504;28;20026;-70
2021/12/12 03:07:51;;;;;;;43.35;13.40;;;3.80;99.90;;;;;;5008355;28;20033;-69
2021/12/12 03:10:21;;;;;;;43.33;14.27;;;3.80;99.90;;;;;;5006831;28;20045;-69
2021/12/12 03:12:47;;;;;;;33.83;12.30;;;3.80;99.90;;;;;;5008156;28;20041;-69
2021/12/12 03:15:20;;;;;;;41.03;13.55;;;3.80;99.90;;;;;;5008169;28;20090;-69
2021/12/12 03:17:48;;;;;;;46.78;12.15;;;3.80;99.90;;;;;;5007627;28;20022;-70
2021/12/12 03:20:24;;;;;;;38.78;13.45;;;3.90;99.90;;;;;;5007831;28;20065;-69
2021/12/12 03:22:55;;;;;;;48.17;14.20;;;3.90;99.90;;;;;;5008152;28;20391;-69
2021/12/12 03:25:21;;;;;;;42.55;12.85;;;3.90;99.90;;;;;;5008047;28;20030;-69
2021/12/12 03:27:47;;;;;;;39.53;13.07;;;3.90;99.90;;;;;;5007786;28;20057;-69
2021/12/12 03:30:14;;;;;;;50.15;15.10;;;3.90;99.90;;;;;;5007839;28;20033;-69
2021/12/12 03:32:40;;;;;;;41.97;13.63;;;4.00;99.90;;;;;;5007884;28;20086;-68
2021/12/12 03:35:06;;;;;;;34.10;13.50;;;4.00;99.90;;;;;;5007592;28;20022;-68
2021/12/12 03:37:33;;;;;;;47.33;15.05;;;4.00;99.90;;;;;;5007659;28;20045;-69
2021/12/12 03:40:04;;;;;;;47.30;14.60;;;4.10;99.90;;;;;;5007542;28;20519;-69
2021/12/12 03:42:30;;;;;;;58.63;13.93;;;4.10;99.90;;;;;;5007482;28;20053;-69
2021/12/12 03:44:58;;;;;;;41.47;13.75;;;4.10;99.90;;;;;;5007761;28;20459;-69
2021/12/12 03:47:37;;;;;;;45.08;13.38;;;4.10;99.90;;;;;;5007447;28;20360;-70
2021/12/12 03:50:10;;;;;;;42.30;11.48;;;4.10;99.90;;;;;;5007293;28;20050;-68
2021/12/12 03:52:36;;;;;;;37.70;13.17;;;4.10;99.90;;;;;;5007425;28;20026;-69
2021/12/12 03:55:07;;;;;;;40.40;15.20;;;4.20;99.90;;;;;;5007363;28;20036;-68
2021/12/12 03:57:33;;;;;;;38.63;12.63;;;4.20;99.90;;;;;;5007258;28;20030;-67
2021/12/12 04:00:00;;;;;;;37.17;13.75;;;4.20;99.90;;;;;;5007366;28;20094;-67
2021/12/12 04:02:28;;;;;;;39.80;13.15;;;4.20;99.90;;;;;;5007214;28;20046;-69
2021/12/12 04:04:53;;;;;;;43.92;14.65;;;4.20;99.90;;;;;;5007323;28;20037;-69
2021/12/12 04:07:23;;;;;;;45.45;12.48;;;4.30;99.90;;;;;;5007171;28;20026;-68
2021/12/12 04:09:49;;;;;;;49.63;12.82;;;4.30;99.90;;;;;;5006408;28;20026;-69
2021/12/12 04:12:17;;;;;;;37.90;14.10;;;4.30;99.90;;;;;;5006790;28;20088;-69
2021/12/12 04:14:45;;;;;;;41.92;13.00;;;4.30;99.90;;;;;;5007068;28;20026;-69
2021/12/12 04:17:14;;;;;;;46.72;13.95;;;4.30;99.90;;;;;;5006787;28;20475;-69
2021/12/12 04:19:42;;;;;;;42.40;14.63;;;4.30;99.90;;;;;;5006408;28;20057;-69
2021/12/12 04:22:09;;;;;;;34.63;12.27;;;4.40;99.90;;;;;;5006821;28;20061;-70
2021/12/12 04:24:38;;;;;;;36.92;14.13;;;4.40;99.90;;;;;;5006956;28;20022;-69
2021/12/12 04:27:05;;;;;;;44.92;13.98;;;4.40;99.90;;;;;;5006686;28;20034;-69
2021/12/12 04:29:35;;;;;;;46.13;13.32;;;4.40;99.90;;;;;;5006656;28;20022;-70
2021/12/12 04:32:06;;;;;;;63.42;15.93;;;4.40;99.90;;;;;;5006594;28;20033;-70
2021/12/12 04:34:36;;;;;;;45.15;13.05;;;4.40;99.90;;;;;;5006472;28;20030;-71
2021/12/12 04:37:04;;;;;;;30.60;11.73;;;4.40;99.90;;;;;;5006642;28;20022;-69
2021/12/12 04:39:37;;;;;;;48.67;12.13;;;4.40;99.90;;;;;;5006335;28;20030;-72
2021/12/12 04:42:11;;;;;;;32.70;11.15;;;4.40;99.90;;;;;;5006600;28;20033;-70
2021/12/12 04:44:38;;;;;;;48.83;11.88;;;4.40;99.90;;;;;;5006389;28;20037;-70
2021/12/12 04:50:24;;;;;;;40.42;12.68;;;4.40;99.90;;;;;;5006306;28;20117;-70
2021/12/12 04:53:15;;;;;;;41.85;13.75;;;4.40;99.90;;;;;;5005097;28;20035;-69
2021/12/12 04:56:19;;;;;;;43.33;12.98;;;4.40;99.90;;;;;;5006329;28;20042;-70
2021/12/12 04:58:52;;;;;;;30.80;11.68;;;4.40;99.90;;;;;;5004020;28;20050;-69
2021/12/12 05:01:25;;;;;;;39.13;14.23;;;4.40;99.90;;;;;;5006256;28;20109;-69
2021/12/12 05:03:59;;;;;;;30.13;11.00;;;4.40;99.90;;;;;;5006177;28;20097;-71
2021/12/12 05:06:41;;;;;;;28.30;9.95;;;4.40;99.90;;;;;;5006286;28;20045;-71
2021/12/12 05:09:12;;;;;;;28.58;9.70;;;4.40;99.90;;;;;;5005945;28;20107;-70
2021/12/12 05:12:07;;;;;;;31.23;12.25;;;4.40;99.90;;;;;;5005809;28;20105;-70
2021/12/12 05:14:45;;;;;;;37.03;12.02;;;4.40;99.90;;;;;;5005765;28;20494;-70
2021/12/12 05:17:19;;;;;;;31.15;10.38;;;4.40;99.90;;;;;;5005854;28;20037;-69
2021/12/12 05:19:46;;;;;;;;;;;4.40;99.90;;;;;;5005667;28;20054;-71
2021/12/12 05:22:17;;;;;;;33.60;11.57;;;4.40;99.90;;;;;;5004942;28;20405;-70
2021/12/12 05:24:47;;;;;;;26.27;9.43;;;4.40;99.90;;;;;;5005829;28;20077;-70
2021/12/12 05:27:17;;;;;;;41.45;11.25;;;4.40;99.90;;;;;;5005761;28;20046;-69
2021/12/12 05:29:55;;;;;;;38.67;10.45;;;4.40;99.90;;;;;;5005528;28;20022;-70
2021/12/12 05:32:22;;;;;;;23.25;9.20;;;4.40;99.90;;;;;;5005964;28;20057;-70
2021/12/12 05:34:49;;;;;;;38.65;10.50;;;4.30;99.90;;;;;;5005538;28;20023;-70
2021/12/12 05:37:17;;;;;;;30.90;10.32;;;4.30;99.90;;;;;;5005429;28;20027;-70
2021/12/12 05:39:43;;;;;;;27.42;10.60;;;4.30;99.90;;;;;;5005382;28;20081;-71
2021/12/12 05:42:10;;;;;;;49.63;9.95;;;4.40;99.90;;;;;;5005489;28;20476;-70
2021/12/12 05:44:36;;;;;;;26.80;9.02;;;4.40;99.90;;;;;;5005496;28;20030;-70
2021/12/12 05:47:06;;;;;;;22.60;9.35;;;4.40;99.90;;;;;;5005442;28;20022;-70
2021/12/12 05:49:32;;;;;;;19.50;8.13;;;4.30;99.90;;;;;;5005242;28;20033;-71
2021/12/12 05:51:59;;;;;;;18.63;8.13;;;4.30;99.90;;;;;;5005429;28;20037;-71
2021/12/12 05:54:27;;;;;;;20.67;8.00;;;4.30;99.90;;;;;;5005553;28;20033;-73
2021/12/12 05:56:54;;;;;;;27.80;10.05;;;4.30;99.90;;;;;;5005382;28;20485;-71
2021/12/12 05:59:21;;;;;;;23.50;8.90;;;4.30;99.90;;;;;;5004665;28;20030;-70
2021/12/12 06:01:47;;;;;;;22.45;8.23;;;4.30;99.90;;;;;;5005539;28;20088;-71
2021/12/12 06:04:13;;;;;;;28.10;7.95;;;4.30;99.90;;;;;;5005253;28;20043;-71
2021/12/12 06:06:41;;;;;;;36.85;8.75;;;4.30;99.90;;;;;;5005214;28;20034;-70
2021/12/12 06:09:09;;;;;;;18.52;6.43;;;4.30;99.90;;;;;;5005423;28;20031;-71
2021/12/12 06:11:37;;;;;;;17.77;8.32;;;4.20;99.90;;;;;;5005391;28;20065;-71
2021/12/12 06:14:07;;;;;;;20.40;7.88;;;4.30;99.90;;;;;;5005468;28;20034;-70
2021/12/12 06:16:34;;;;;;;20.80;7.97;;;4.30;99.90;;;;;;5003713;28;20030;-71
2021/12/12 06:19:07;;;;;;;29.70;8.45;;;4.30;99.90;;;;;;5004866;28;20129;-69
2021/12/12 06:21:33;;;;;;;21.70;8.03;;;4.30;99.90;;;;;;5003584;28;20034;-71
2021/12/12 06:24:00;;;;;;;22.15;8.00;;;4.30;99.90;;;;;;5005248;28;20022;-69
2021/12/12 06:26:26;;;;;;;24.75;6.95;;;4.30;99.90;;;;;;5005261;28;20092;-72
2021/12/12 06:28:52;;;;;;;36.05;7.60;;;4.30;99.90;;;;;;5005171;28;20034;-71
2021/12/12 06:31:19;;;;;;;31.75;6.97;;;4.30;99.90;;;;;;5005399;28;20034;-73
2021/12/12 06:33:46;;;;;;;26.20;8.23;;;4.30;99.90;;;;;;5008799;28;20402;-73
2021/12/12 06:36:13;;;;;;;25.20;7.93;;;4.30;99.90;;;;;;5008744;28;20483;-73
2021/12/12 06:38:42;;;;;;;18.88;6.88;;;4.20;99.90;;;;;;5008823;28;20058;-73
2021/12/12 06:41:10;;;;;;;20.52;6.68;;;4.20;99.90;;;;;;5008766;28;20031;-72
2021/12/12 06:43:42;;;;;;;18.85;5.40;;;4.20;99.90;;;;;;5007386;28;20023;-75
2021/12/12 06:46:09;;;;;;;21.75;6.50;;;4.20;99.90;;;;;;5007565;28;20089;-73
2021/12/12 06:48:38;;;;;;;20.55;7.28;;;4.20;99.90;;;;;;5007119;28;20026;-74
2021/12/12 06:51:04;;;;;;;32.45;8.30;;;4.20;99.90;;;;;;5008411;28;20022;-73
2021/12/12 06:53:33;;;;;;;16.85;6.05;;;4.20;99.90;;;;;;5008434;28;20521;-74
2021/12/12 06:55:59;;;;;;;22.23;6.25;;;4.20;99.90;;;;;;5008609;28;20019;-74
2021/12/12 06:58:29;;;;;;;17.33;6.20;;;4.20;99.90;;;;;;5007085;28;20383;-75
2021/12/12 07:01:01;;;;;;;13.27;5.18;;;4.20;99.90;;;;;;5008704;28;20478;-73
2021/12/12 07:03:27;;;;;;;20.02;6.32;;;4.20;99.90;;;;;;5007064;28;20040;-73
2021/12/12 07:05:53;;;;;;;13.20;5.25;;;4.20;99.90;;;;;;5008376;28;20090;-74
2021/12/12 07:08:21;;;;;;;19.70;5.82;;;4.20;99.90;;;;;;5008325;28;20046;-74
2021/12/12 07:10:47;;;;;;;20.02;5.72;;;4.20;99.90;;;;;;5008304;28;20023;-75
2021/12/12 07:13:13;;;;;;;14.18;6.28;;;4.20;99.90;;;;;;5008135;28;20044;-74
2021/12/12 07:15:46;;;;;;;14.07;5.75;;;4.20;99.90;;;;;;5006749;28;20026;-72
2021/12/12 07:18:15;;;;;;;11.93;5.15;;;4.20;99.90;;;;;;5008926;28;20056;-74
2021/12/12 07:20:46;;;;;;;13.52;5.43;;;4.30;99.90;;;;;;5001996;28;20057;-76
2021/12/12 07:23:13;;;;;;;12.45;5.10;;;4.30;99.90;;;;;;5000707;28;20038;-73
2021/12/12 07:25:40;;;;;;;17.10;5.00;;;4.30;99.90;;;;;;5007796;28;20391;-75
2021/12/12 07:28:06;;;;;;;18.08;4.70;;;4.30;99.90;;;;;;5001163;28;20036;-75
2021/12/12 07:30:34;;;;;;;8.95;4.13;;;4.20;99.90;;;;;;5006858;28;20056;-75
2021/12/12 07:33:10;;;;;;;12.75;3.83;;;4.30;99.90;;;;;;5005047;28;20526;-74
2021/12/12 07:35:39;;;;;;;16.00;4.25;;;4.30;99.90;;;;;;4996956;28;20037;-74
2021/12/12 07:38:12;;;;;;;11.65;4.75;;;4.30;99.90;;;;;;5005032;28;20041;-74
2021/12/12 07:40:39;;;;;;;12.05;4.07;;;4.30;99.90;;;;;;5002825;28;20030;-77
2021/12/12 07:43:05;;;;;;;10.23;3.60;;;4.30;99.90;;;;;;5006147;28;20078;-75
2021/12/12 07:45:33;;;;;;;15.05;3.42;;;4.30;99.90;;;;;;5007364;28;20030;-74
2021/12/12 07:47:59;;;;;;;8.13;3.75;;;4.30;99.90;;;;;;5006063;28;20070;-76
2021/12/12 07:50:27;;;;;;;11.95;2.63;;;4.40;99.90;;;;;;5006036;28;20037;-75
2021/12/12 07:52:54;;;;;;;12.68;4.00;;;4.30;99.90;;;;;;5005939;28;20026;-76
2021/12/12 07:55:21;;;;;;;9.00;3.47;;;4.30;99.90;;;;;;5005798;28;20183;-76
2021/12/12 07:57:53;;;;;;;12.63;3.53;;;4.40;99.90;;;;;;5006911;28;20433;-75
2021/12/12 08:00:25;;;;;;;8.60;3.88;;;4.40;99.90;;;;;;5004235;28;20049;-75
2021/12/12 08:02:51;;;;;;;8.20;4.13;;;4.40;99.90;;;;;;5007324;28;20046;-76
2021/12/12 08:05:19;;;;;;;4.85;2.17;;;4.30;99.90;;;;;;5004964;28;20033;-73
2021/12/12 08:07:45;;;;;;;9.32;3.63;;;4.40;99.90;;;;;;5006571;28;20042;-75
2021/12/12 08:10:13;;;;;;;9.95;3.90;;;4.40;99.90;;;;;;5006829;28;20022;-77
2021/12/12 08:12:40;;;;;;;8.60;3.28;;;4.40;99.90;;;;;;5003195;28;20033;-72
2021/12/12 08:15:10;;;;;;;10.00;4.28;;;4.40;99.90;;;;;;4999628;28;20023;-75
2021/12/12 08:17:45;;;;;;;15.00;2.97;;;4.40;99.90;;;;;;5002982;28;20022;-77
2021/12/12 08:20:13;;;;;;;6.18;2.88;;;4.40;99.90;;;;;;5004713;28;20056;-73
2021/12/12 08:22:41;;;;;;;13.43;4.35;;;4.50;99.90;;;;;;5005571;28;20090;-75
2021/12/12 08:25:09;;;;;;;8.02;3.58;;;4.50;99.90;;;;;;5005949;28;20037;-74
2021/12/12 08:27:35;;;;;;;6.90;3.15;;;4.50;99.90;;;;;;4995724;28;20041;-75
2021/12/12 08:30:01;;;;;;;10.98;3.28;;;4.40;99.90;;;;;;4997357;28;20093;-76
2021/12/12 08:32:28;;;;;;;7.18;3.30;;;4.50;99.90;;;;;;4992197;28;20031;-76
2021/12/12 08:34:54;;;;;;;6.93;3.63;;;4.50;99.90;;;;;;4993822;28;20767;-77
2021/12/12 08:37:20;;;;;;;7.65;3.33;;;4.50;99.90;;;;;;5005938;28;20084;-76
2021/12/12 08:39:46;;;;;;;11.65;3.03;;;4.50;99.90;;;;;;5006119;28;20531;-75
2021/12/12 08:42:13;;;;;;;13.65;4.78;;;4.50;99.90;;;;;;5006198;28;20085;-73
2021/12/12 08:44:39;;;;;;;19.83;7.00;;;4.50;99.90;;;;;;5006054;28;20057;-75
2021/12/12 08:47:09;;;;;;;20.35;8.10;;;4.50;99.90;;;;;;5005923;28;20041;-74
2021/12/12 08:49:40;;;;;;;7.90;2.80;;;4.50;99.90;;;;;;5005377;28;20517;-75
2021/12/12 08:52:14;;;;;;;10.43;4.45;;;4.50;99.90;;;;;;5005830;28;20101;-73
2021/12/12 08:54:43;;;;;;;9.80;3.28;;;4.60;99.90;;;;;;5003972;28;20026;-75
2021/12/12 08:57:31;;;;;;;6.55;3.10;;;4.60;99.90;;;;;;5005307;28;20070;-74
2021/12/12 08:59:57;;;;;;;5.35;2.90;;;4.60;99.90;;;;;;5003244;28;20045;-74
2021/12/12 09:02:23;;;;;;;8.63;3.17;;;4.60;99.90;;;;;;5002998;28;20121;-74
2021/12/12 09:04:54;;;;;;;7.13;3.67;;;4.60;99.90;;;;;;5001034;28;20037;-74
2021/12/12 09:07:39;;;;;;;7.72;3.75;;;4.70;99.90;;;;;;4987344;28;20419;-76
2021/12/12 09:10:11;;;;;;;17.60;4.50;;;4.70;99.90;;;;;;4993729;28;20070;-75
2021/12/12 09:12:50;;;;;;;7.95;3.97;;;4.70;99.90;;;;;;4996502;28;20045;-75
2021/12/12 09:15:22;;;;;;;12.88;4.95;;;4.70;99.90;;;;;;5005162;28;20061;-75
2021/12/12 09:17:52;;;;;;;12.98;4.43;;;4.70;99.90;;;;;;5004539;28;20445;-76
2021/12/12 09:20:35;;;;;;;8.68;3.45;;;4.70;99.90;;;;;;5002634;28;20364;-77
2021/12/12 09:23:32;;;;;;;10.93;3.65;;;4.80;99.90;;;;;;5003246;28;20026;-77
2021/12/12 09:26:06;;;;;;;6.78;3.63;;;4.80;99.90;;;;;;5004415;28;20049;-76
2021/12/12 09:29:01;;;;;;;9.07;3.45;;;4.80;99.90;;;;;;5003865;28;20030;-77
2021/12/12 09:31:42;;;;;;;7.97;4.18;;;4.90;99.90;;;;;;5003793;28;20034;-75
2021/12/12 09:34:25;;;;;;;10.88;3.95;;;4.90;99.90;;;;;;5003434;28;20122;-76
2021/12/12 09:37:25;;;;;;;12.93;4.50;;;4.90;99.90;;;;;;5001287;28;20058;-75
2021/12/12 09:39:59;;;;;;;6.20;2.95;;;5.00;99.90;;;;;;4964321;28;20054;-75
2021/12/12 09:42:52;;;;;;;13.20;4.95;;;5.00;99.90;;;;;;4995109;28;20030;-76
2021/12/12 09:45:36;;;;;;;6.97;3.33;;;5.00;99.90;;;;;;5004643;28;20097;-76
2021/12/12 09:51:27;;;;;;;8.25;3.78;;;5.10;99.90;;;;;;5001780;28;20030;-76
2021/12/12 09:54:35;;;;;;;10.75;4.63;;;5.10;99.90;;;;;;5000547;28;20054;-76
2021/12/12 09:57:06;;;;;;;10.13;4.85;;;5.10;99.90;;;;;;4979948;28;20328;-76
2021/12/12 09:59:44;;;;;;;10.82;4.80;;;5.20;99.90;;;;;;5003305;28;20054;-75
2021/12/12 10:02:38;;;;;;;13.80;5.43;;;5.20;99.90;;;;;;5000574;28;20034;-76
2021/12/12 10:05:19;;;;;;;8.73;4.23;;;5.20;99.90;;;;;;5002128;28;20061;-76
2021/12/12 10:07:50;;;;;;;13.10;5.72;;;5.30;99.90;;;;;;5004860;28;20562;-77
2021/12/12 10:10:43;;;;;;;10.02;5.15;;;5.30;99.90;;;;;;5021879;28;20034;-76
2021/12/12 10:13:27;;;;;;;14.77;6.22;;;5.30;99.90;;;;;;5028223;28;20034;-75
2021/12/12 10:16:05;;;;;;;11.23;5.40;;;5.30;99.90;;;;;;4989306;28;20042;-76
2021/12/12 10:18:47;;;;;;;18.30;5.97;;;5.30;99.90;;;;;;5004159;28;20065;-76
2021/12/12 10:21:19;;;;;;;12.52;4.82;;;5.40;99.90;;;;;;4987726;28;20046;-77
2021/12/12 10:23:51;;;;;;;15.25;6.10;;;5.40;99.90;;;;;;5005257;28;20045;-75
2021/12/12 10:26:39;;;;;;;14.18;5.63;;;5.40;99.90;;;;;;5006176;28;20035;-74
2021/12/12 10:29:26;;;;;;;12.95;6.05;;;5.40;99.90;;;;;;5012796;28;20117;-76
2021/12/12 10:32:01;;;;;;;7.90;3.97;;;5.40;99.90;;;;;;5003181;28;20046;-76
2021/12/12 10:34:32;;;;;;;17.58;4.70;;;5.50;99.90;;;;;;5007493;28;20034;-74
2021/12/12 10:37:13;;;;;;;10.27;4.85;;;5.50;99.90;;;;;;5006910;28;20030;-76
2021/12/12 10:39:45;;;;;;;20.58;5.75;;;5.50;99.90;;;;;;5007587;28;20053;-74
2021/12/12 10:42:24;;;;;;;10.13;4.55;;;5.60;99.90;;;;;;5007742;28;20026;-76
2021/12/12 10:44:54;;;;;;;8.52;4.10;;;5.60;99.90;;;;;;4987500;28;20096;-76
2021/12/12 10:47:31;;;;;;;10.60;4.40;;;5.60;99.90;;;;;;4987490;28;20031;-77
2021/12/12 10:50:13;;;;;;;11.30;5.13;;;5.70;99.90;;;;;;4988634;28;20030;-74
2021/12/12 10:53:05;;;;;;;12.48;5.20;;;5.70;99.90;;;;;;4986986;28;20041;-75
2021/12/12 10:56:02;;;;;;;13.68;5.55;;;5.70;99.90;;;;;;4988433;28;20030;-77
2021/12/12 10:58:28;;;;;;;8.85;4.32;;;5.70;99.90;;;;;;5005757;28;20149;-77
2021/12/12 11:01:13;;;;;;;11.07;4.53;;;5.70;99.90;;;;;;5007262;28;20026;-75
2021/12/12 11:03:53;;;;;;;8.38;4.18;;;5.70;99.90;;;;;;5004967;28;20045;-78
2021/12/12 11:06:43;;;;;;;11.73;4.65;;;5.80;99.90;;;;;;4993096;28;20627;-77
2021/12/12 11:09:18;;;;;;;14.52;6.00;;;5.80;99.90;;;;;;5006354;28;20033;-76
2021/12/12 11:12:22;;;;;;;10.35;5.10;;;5.80;99.90;;;;;;5004713;28;20039;-77
2021/12/12 11:15:13;;;;;;;18.35;6.32;;;5.80;99.90;;;;;;4999970;28;20403;-79
2021/12/12 11:17:50;;;;;;;11.23;5.90;;;5.80;99.90;;;;;;5003478;28;20030;-77
2021/12/12 11:20:31;;;;;;;15.05;6.90;;;6.00;99.90;;;;;;5004705;28;20406;-75
2021/12/12 11:23:10;;;;;;;24.55;8.02;;;5.90;99.90;;;;;;5002394;28;20104;-77
2021/12/12 11:25:44;;;;;;;19.80;7.28;;;5.90;99.90;;;;;;5007343;28;20048;-78
2021/12/12 11:28:19;;;;;;;14.82;5.88;;;5.90;99.90;;;;;;5006489;28;20054;-72
2021/12/12 11:30:52;;;;;;;14.98;6.60;;;5.90;99.90;;;;;;5005271;28;20404;-74
2021/12/12 11:33:19;;;;;;;16.67;6.60;;;6.00;99.90;;;;;;5006751;28;20033;-76
2021/12/12 11:35:50;;;;;;;15.98;6.50;;;6.00;99.90;;;;;;5006793;28;20029;-75
2021/12/12 11:38:27;;;;;;;15.60;6.97;;;6.00;99.90;;;;;;5006588;28;20053;-78
2021/12/12 11:41:43;;;;;;;19.52;7.18;;;6.00;99.90;;;;;;5005918;28;20035;-76
2021/12/12 11:44:27;;;;;;;12.50;5.95;;;6.10;99.90;;;;;;4973855;28;20102;-76
2021/12/12 11:47:30;;;;;;;21.43;8.23;;;6.10;99.90;;;;;;5006945;28;20018;-78
2021/12/12 11:50:28;;;;;;;19.17;7.47;;;6.10;99.90;;;;;;5001701;28;20062;-78
2021/12/12 11:53:11;;;;;;;17.60;6.68;;;6.10;99.90;;;;;;4981713;28;20399;-77
2021/12/12 11:56:05;;;;;;;21.65;7.50;;;6.20;99.90;;;;;;5005677;28;20030;-76
2021/12/12 11:58:48;;;;;;;16.25;6.45;;;6.20;99.90;;;;;;5000398;28;20117;-75
2021/12/12 12:01:24;;;;;;;16.90;7.50;;;6.20;99.90;;;;;;4994003;28;20038;-76
2021/12/12 12:04:34;;;;;;;16.55;7.28;;;6.30;99.90;;;;;;5002280;28;20034;-77
2021/12/12 12:07:26;;;;;;;22.00;8.00;;;6.30;99.90;;;;;;4994754;28;20046;-77
2021/12/12 12:10:13;;;;;;;17.15;6.85;;;6.30;99.90;;;;;;5006704;28;20114;-75
2021/12/12 12:13:03;;;;;;;21.13;7.18;;;6.30;99.90;;;;;;5005320;28;20081;-77
2021/12/12 12:15:38;;;;;;;14.68;7.03;;;6.30;99.90;;;;;;5005335;28;20030;-73
2021/12/12 12:18:22;;;;;;;14.77;6.93;;;6.40;99.90;;;;;;5005788;28;20026;-76
2021/12/12 12:21:10;;;;;;;15.35;6.70;;;6.40;99.90;;;;;;5006424;28;20090;-72
2021/12/12 12:24:10;;;;;;;13.50;6.78;;;6.40;99.90;;;;;;5006475;28;20053;-74
2021/12/12 12:27:06;;;;;;;19.67;7.75;;;6.40;99.90;;;;;;5004836;28;20609;-75
2021/12/12 12:29:31;;;;;;;16.02;6.75;;;6.40;99.90;;;;;;5003619;28;20072;-75
2021/12/12 12:32:19;;;;;;;20.77;7.55;;;6.50;99.90;;;;;;5006212;28;20506;-73
2021/12/12 12:35:08;;;;;;;19.48;7.07;;;6.50;99.90;;;;;;5007212;28;20487;-75
2021/12/12 12:38:12;;;;;;;37.58;6.35;;;6.50;99.90;;;;;;4986455;28;20087;-74
2021/12/12 12:41:15;;;;;;;16.38;7.10;;;6.60;99.90;;;;;;5003859;28;20043;-75
2021/12/12 12:44:25;;;;;;;13.05;6.35;;;6.60;99.90;;;;;;5005753;28;20027;-73
2021/12/12 12:47:10;;;;;;;14.40;5.93;;;6.60;99.90;;;;;;5005836;28;20034;-74
2021/12/12 12:50:13;;;;;;;17.27;5.97;;;6.70;99.90;;;;;;5004737;28;20026;-75
2021/12/12 12:53:12;;;;;;;13.85;5.82;;;6.70;99.90;;;;;;5004534;28;20030;-75
2021/12/12 12:55:59;;;;;;;16.33;6.53;;;6.70;99.90;;;;;;5004261;28;20018;-76
2021/12/12 12:58:29;;;;;;;14.27;6.03;;;6.70;99.90;;;;;;5004307;28;20046;-75
2021/12/12 13:01:29;;;;;;;11.00;5.35;;;6.80;99.90;;;;;;4999754;28;20037;-74
2021/12/12 13:04:03;;;;;;;19.50;8.07;;;6.80;99.90;;;;;;4989493;28;20030;-75
2021/12/12 13:06:58;;;;;;;14.32;5.30;;;6.80;99.90;;;;;;5016024;28;20045;-73
2021/12/12 13:10:06;;;;;;;22.35;8.65;;;6.80;99.90;;;;;;4989903;28;20027;-75
2021/12/12 13:13:13;;;;;;;21.30;7.80;;;6.90;99.90;;;;;;4990264;28;20454;-76
2021/12/12 13:16:05;;;;;;;17.38;7.68;;;6.90;99.90;;;;;;4973545;28;20043;-74
2021/12/12 13:18:42;;;;;;;15.32;5.22;;;6.90;99.90;;;;;;5003690;28;20054;-75
2021/12/12 13:21:34;;;;;;;12.45;5.35;;;6.90;99.90;;;;;;5005118;28;20027;-76
2021/12/12 13:24:32;;;;;;;17.50;6.90;;;6.90;99.90;;;;;;4999925;28;20031;-75
2021/12/12 13:27:32;;;;;;;11.88;5.32;;;7.00;99.90;;;;;;4999290;28;20041;-76
2021/12/12 13:30:05;;;;;;;13.68;5.00;;;7.00;99.90;;;;;;5003024;28;20037;-75
2021/12/12 13:32:46;;;;;;;16.95;6.50;;;7.00;99.90;;;;;;5003691;28;20980;-76
2021/12/12 13:35:20;;;;;;;21.30;9.20;;;7.00;99.90;;;;;;5000206;28;20379;-75
2021/12/12 13:38:07;;;;;;;14.15;6.13;;;7.10;99.90;;;;;;4998235;28;20058;-76
2021/12/12 13:40:57;;;;;;;7.80;4.85;;;7.10;99.90;;;;;;4987545;28;20134;-75
2021/12/12 13:43:34;;;;;;;13.95;6.78;;;7.10;99.90;;;;;;5001270;28;20038;-73
2021/12/12 13:46:28;;;;;;;16.95;5.53;;;7.00;99.90;;;;;;5002201;28;20035;-77